Terminal Aerodrome Forecast
Issued by NWS

Home | Current Version | Previous Version | Graphics & Text | Print | Product List | Glossary On
Versions: 1 2 3 4 5 6 7 8 9 10 11 12 13 14 15 16 17 18 19 20
000
FTUS43 KFGF 241700
TAFBJI
TAF
KBJI 241720Z 2418/2518 15012G18KT P6SM BKN008
     FM242000 18014G20KT P6SM BKN025
     FM250000 21009KT P6SM SCT250
     FM251600 24013KT P6SM BKN030=

USA.gov is the U.S. government's official web portal to all federal, state and local government web resources and services.